TPC142 KPSP-KTUS
Flight info
| Callsign | TPC142 |
|---|---|
| Flight time | 0h 52m |
| Altitude | 41000 |
| Route | HWRRD1 BLH J50 GBN DINGO6 |
| Aircraft | C750/M-SBDE3FGHRWXY/S |
Departure
| Time | 2026-04-24 00:22 |
|---|---|
| Airport | Palm Springs International Airport (KPSP) |
Arrival
| Time | 2026-04-24 01:14 |
|---|---|
| Airport | Tucson International Airport (KTUS) |
| Time | Latitude | Longitude | Altitude | Speed | Heading |
|---|---|---|---|---|---|
| 2026-04-23 23:50 | 33.82630 | -116.50876 | 431 ft | 0 kts | 89° |
| 2026-04-24 00:13 | 33.82630 | -116.50875 | 450 ft | 1 kts | 89° |
| 2026-04-24 00:13 | 33.82628 | -116.50853 | 431 ft | 4 kts | 118° |
| 2026-04-24 00:14 | 33.82584 | -116.50843 | 430 ft | 9 kts | 175° |
| 2026-04-24 00:14 | 33.82538 | -116.50795 | 427 ft | 9 kts | 103° |
| 2026-04-24 00:14 | 33.82536 | -116.50734 | 426 ft | 7 kts | 90° |
| 2026-04-24 00:14 | 33.82531 | -116.50662 | 423 ft | 10 kts | 94° |
| 2026-04-24 00:15 | 33.82522 | -116.50578 | 420 ft | 11 kts | 132° |
| 2026-04-24 00:15 | 33.82456 | -116.50517 | 410 ft | 13 kts | 141° |
| 2026-04-24 00:15 | 33.82380 | -116.50447 | 414 ft | 15 kts | 145° |
| 2026-04-24 00:15 | 33.82292 | -116.50367 | 409 ft | 16 kts | 143° |
| 2026-04-24 00:16 | 33.82203 | -116.50287 | 410 ft | 16 kts | 143° |
| 2026-04-24 00:16 | 33.82114 | -116.50206 | 403 ft | 17 kts | 142° |
| 2026-04-24 00:16 | 33.82020 | -116.50127 | 407 ft | 16 kts | 143° |
| 2026-04-24 00:16 | 33.81930 | -116.50046 | 404 ft | 17 kts | 143° |
| 2026-04-24 00:17 | 33.81854 | -116.49940 | 400 ft | 17 kts | 91° |
| 2026-04-24 00:17 | 33.81853 | -116.49897 | 400 ft | 0 kts | 90° |
| 2026-04-24 00:20 | 33.81853 | -116.49896 | 400 ft | 1 kts | 90° |
| 2026-04-24 00:20 | 33.81857 | -116.49860 | 399 ft | 6 kts | 71° |
| 2026-04-24 00:20 | 33.81889 | -116.49824 | 398 ft | 8 kts | 19° |
| 2026-04-24 00:21 | 33.81925 | -116.49841 | 399 ft | 0 kts | 324° |
| 2026-04-24 00:21 | 33.81966 | -116.49876 | 400 ft | 41 kts | 324° |
| 2026-04-24 00:21 | 33.82497 | -116.50346 | 529 ft | 121 kts | 325° |
| 2026-04-24 00:22 | 33.83213 | -116.50927 | 1244 ft | 132 kts | 327° |
| 2026-04-24 00:22 | 33.84049 | -116.51602 | 1768 ft | 159 kts | 321° |
| 2026-04-24 00:22 | 33.84967 | -116.52515 | 2414 ft | 181 kts | 321° |
| 2026-04-24 00:22 | 33.86026 | -116.53452 | 3197 ft | 196 kts | 324° |
| 2026-04-24 00:23 | 33.87168 | -116.54416 | 4096 ft | 205 kts | 324° |
| 2026-04-24 00:23 | 33.88338 | -116.55406 | 5050 ft | 211 kts | 323° |
| 2026-04-24 00:23 | 33.89595 | -116.56440 | 5647 ft | 234 kts | 328° |
| 2026-04-24 00:23 | 33.91316 | -116.56887 | 5455 ft | 273 kts | 1° |
| 2026-04-24 00:24 | 33.93064 | -116.56022 | 5194 ft | 277 kts | 37° |
| 2026-04-24 00:24 | 33.94306 | -116.54331 | 5507 ft | 268 kts | 51° |
| 2026-04-24 00:24 | 33.95481 | -116.52532 | 6084 ft | 277 kts | 53° |
| 2026-04-24 00:24 | 33.96305 | -116.50405 | 6534 ft | 286 kts | 79° |
| 2026-04-24 00:25 | 33.96169 | -116.48027 | 6991 ft | 286 kts | 102° |
| 2026-04-24 00:25 | 33.95693 | -116.45676 | 7558 ft | 290 kts | 105° |
| 2026-04-24 00:25 | 33.95168 | -116.43311 | 8271 ft | 294 kts | 107° |
| 2026-04-24 00:25 | 33.94241 | -116.41101 | 8891 ft | 300 kts | 132° |
| 2026-04-24 00:26 | 33.92721 | -116.39393 | 9000 ft | 298 kts | 142° |
| 2026-04-24 00:26 | 33.91140 | -116.37779 | 9075 ft | 302 kts | 142° |
| 2026-04-24 00:26 | 33.89587 | -116.36114 | 10232 ft | 295 kts | 141° |
| 2026-04-24 00:26 | 33.88043 | -116.34431 | 10789 ft | 314 kts | 141° |
| 2026-04-24 00:27 | 33.86340 | -116.32605 | 11021 ft | 341 kts | 141° |
| 2026-04-24 00:27 | 33.84498 | -116.30636 | 11165 ft | 367 kts | 141° |
| 2026-04-24 00:27 | 33.82577 | -116.28563 | 11886 ft | 372 kts | 141° |
| 2026-04-24 00:27 | 33.80653 | -116.26460 | 12569 ft | 379 kts | 140° |
| 2026-04-24 00:28 | 33.79086 | -116.23828 | 13025 ft | 398 kts | 117° |
| 2026-04-24 00:28 | 33.78100 | -116.20693 | 13723 ft | 403 kts | 109° |
| 2026-04-24 00:28 | 33.77210 | -116.17481 | 14347 ft | 408 kts | 109° |
| 2026-04-24 00:28 | 33.76306 | -116.14231 | 14958 ft | 413 kts | 109° |
| 2026-04-24 00:29 | 33.75354 | -116.10952 | 15615 ft | 417 kts | 110° |
| 2026-04-24 00:29 | 33.74388 | -116.07640 | 16275 ft | 421 kts | 110° |
| 2026-04-24 00:29 | 33.73433 | -116.04290 | 16981 ft | 425 kts | 110° |
| 2026-04-24 00:29 | 33.72469 | -116.00897 | 17632 ft | 431 kts | 110° |
| 2026-04-24 00:30 | 33.71482 | -115.97475 | 18321 ft | 436 kts | 110° |
| 2026-04-24 00:30 | 33.70514 | -115.93999 | 18943 ft | 440 kts | 107° |
| 2026-04-24 00:30 | 33.70020 | -115.90416 | 19731 ft | 440 kts | 96° |
| 2026-04-24 00:30 | 33.69712 | -115.86728 | 20429 ft | 445 kts | 96° |
| 2026-04-24 00:31 | 33.69389 | -115.83012 | 21122 ft | 449 kts | 96° |
| 2026-04-24 00:31 | 33.69053 | -115.79253 | 21780 ft | 454 kts | 96° |
| 2026-04-24 00:31 | 33.68721 | -115.75465 | 22465 ft | 458 kts | 96° |
| 2026-04-24 00:31 | 33.68389 | -115.71650 | 23105 ft | 462 kts | 96° |
| 2026-04-24 00:32 | 33.68051 | -115.67800 | 23720 ft | 466 kts | 96° |
| 2026-04-24 00:32 | 33.67705 | -115.63905 | 24260 ft | 470 kts | 96° |
| 2026-04-24 00:32 | 33.67357 | -115.59991 | 24760 ft | 475 kts | 96° |
| 2026-04-24 00:32 | 33.67007 | -115.56054 | 25281 ft | 479 kts | 96° |
| 2026-04-24 00:33 | 33.66650 | -115.52060 | 25805 ft | 483 kts | 96° |
| 2026-04-24 00:33 | 33.66287 | -115.48021 | 26336 ft | 487 kts | 96° |
| 2026-04-24 00:33 | 33.65921 | -115.43964 | 26868 ft | 491 kts | 96° |
| 2026-04-24 00:33 | 33.65551 | -115.39870 | 27379 ft | 495 kts | 96° |
| 2026-04-24 00:34 | 33.65176 | -115.35746 | 27895 ft | 499 kts | 97° |
| 2026-04-24 00:34 | 33.64798 | -115.31585 | 28424 ft | 503 kts | 97° |
| 2026-04-24 00:34 | 33.64413 | -115.27388 | 28871 ft | 508 kts | 97° |
| 2026-04-24 00:34 | 33.64025 | -115.23156 | 29377 ft | 512 kts | 97° |
| 2026-04-24 00:35 | 33.63633 | -115.18900 | 29872 ft | 515 kts | 97° |
| 2026-04-24 00:35 | 33.63241 | -115.14668 | 30292 ft | 519 kts | 97° |
| 2026-04-24 00:35 | 33.62841 | -115.10353 | 30680 ft | 522 kts | 97° |
| 2026-04-24 00:35 | 33.62435 | -115.06009 | 31185 ft | 523 kts | 97° |
| 2026-04-24 00:36 | 33.62031 | -115.01682 | 31794 ft | 521 kts | 97° |
| 2026-04-24 00:36 | 33.61625 | -114.97364 | 32391 ft | 520 kts | 97° |
| 2026-04-24 00:36 | 33.61219 | -114.93056 | 32954 ft | 520 kts | 97° |
| 2026-04-24 00:36 | 33.60809 | -114.88732 | 33425 ft | 522 kts | 97° |
| 2026-04-24 00:37 | 33.60398 | -114.84402 | 34006 ft | 522 kts | 97° |
| 2026-04-24 00:37 | 33.59987 | -114.80085 | 34503 ft | 522 kts | 98° |
| 2026-04-24 00:37 | 33.59572 | -114.75754 | 34966 ft | 523 kts | 98° |
| 2026-04-24 00:37 | 33.59302 | -114.72874 | 35282 ft | 524 kts | 97° |
| 2026-04-24 00:38 | 33.58926 | -114.68529 | 35768 ft | 525 kts | 97° |
| 2026-04-24 00:38 | 33.58560 | -114.64162 | 36255 ft | 526 kts | 97° |
| 2026-04-24 00:38 | 33.58168 | -114.59795 | 36746 ft | 527 kts | 98° |
| 2026-04-24 00:38 | 33.57763 | -114.55428 | 37236 ft | 528 kts | 98° |
| 2026-04-24 00:39 | 33.57368 | -114.51049 | 37751 ft | 529 kts | 97° |
| 2026-04-24 00:39 | 33.56982 | -114.46662 | 38267 ft | 530 kts | 97° |
| 2026-04-24 00:39 | 33.56587 | -114.42267 | 38733 ft | 531 kts | 98° |
| 2026-04-24 00:39 | 33.56180 | -114.37865 | 39178 ft | 531 kts | 98° |
| 2026-04-24 00:40 | 33.55776 | -114.33474 | 39655 ft | 530 kts | 98° |
| 2026-04-24 00:40 | 33.55378 | -114.29086 | 40093 ft | 530 kts | 98° |
| 2026-04-24 00:40 | 33.54976 | -114.24685 | 40569 ft | 529 kts | 98° |
| 2026-04-24 00:40 | 33.54567 | -114.20293 | 40878 ft | 533 kts | 98° |
| 2026-04-24 00:41 | 33.54149 | -114.15824 | 40868 ft | 544 kts | 98° |
| 2026-04-24 00:41 | 33.53726 | -114.11267 | 40873 ft | 555 kts | 98° |
| 2026-04-24 00:41 | 33.52854 | -114.01929 | 40889 ft | 574 kts | 98° |
| 2026-04-24 00:42 | 33.51944 | -113.92319 | 40904 ft | 584 kts | 98° |
| 2026-04-24 00:42 | 33.51025 | -113.82639 | 40928 ft | 585 kts | 98° |
| 2026-04-24 00:43 | 33.50097 | -113.73007 | 40948 ft | 586 kts | 98° |
| 2026-04-24 00:43 | 33.49161 | -113.63327 | 40962 ft | 585 kts | 98° |
| 2026-04-24 00:44 | 33.48209 | -113.53601 | 40955 ft | 585 kts | 98° |
| 2026-04-24 00:44 | 33.47242 | -113.43926 | 40928 ft | 584 kts | 100° |
| 2026-04-24 00:45 | 33.45064 | -113.34680 | 40850 ft | 578 kts | 117° |
| 2026-04-24 00:45 | 33.40983 | -113.26521 | 40852 ft | 565 kts | 134° |
| 2026-04-24 00:46 | 33.35571 | -113.19819 | 40864 ft | 556 kts | 144° |
| 2026-04-24 00:46 | 33.30040 | -113.13429 | 40855 ft | 561 kts | 139° |
| 2026-04-24 00:47 | 33.24999 | -113.06245 | 40852 ft | 566 kts | 135° |
| 2026-04-24 00:47 | 33.19775 | -112.99365 | 40265 ft | 546 kts | 141° |
| 2026-04-24 00:48 | 33.17210 | -112.96089 | 39571 ft | 535 kts | 139° |
| 2026-04-24 00:48 | 33.14779 | -112.92769 | 38899 ft | 525 kts | 137° |
| 2026-04-24 00:48 | 33.12401 | -112.89509 | 38172 ft | 513 kts | 139° |
| 2026-04-24 00:48 | 33.10041 | -112.86425 | 37528 ft | 502 kts | 140° |
| 2026-04-24 00:49 | 33.07679 | -112.83381 | 36882 ft | 498 kts | 139° |
| 2026-04-24 00:49 | 33.05353 | -112.80299 | 36237 ft | 504 kts | 139° |
| 2026-04-24 00:49 | 33.03011 | -112.77156 | 35594 ft | 509 kts | 138° |
| 2026-04-24 00:49 | 33.00647 | -112.74021 | 34918 ft | 507 kts | 139° |
| 2026-04-24 00:50 | 32.98445 | -112.70730 | 34254 ft | 512 kts | 130° |
| 2026-04-24 00:50 | 32.96700 | -112.66999 | 33609 ft | 518 kts | 118° |
| 2026-04-24 00:50 | 32.95486 | -112.62931 | 32928 ft | 525 kts | 108° |
| 2026-04-24 00:50 | 32.94817 | -112.58634 | 32230 ft | 529 kts | 98° |
| 2026-04-24 00:51 | 32.94450 | -112.54274 | 31542 ft | 530 kts | 97° |
| 2026-04-24 00:51 | 32.94077 | -112.49902 | 30833 ft | 531 kts | 98° |
| 2026-04-24 00:51 | 32.93666 | -112.45522 | 30138 ft | 531 kts | 98° |
| 2026-04-24 00:51 | 32.93256 | -112.41186 | 29389 ft | 524 kts | 98° |
| 2026-04-24 00:52 | 32.92872 | -112.36887 | 28698 ft | 519 kts | 98° |
| 2026-04-24 00:52 | 32.92495 | -112.32634 | 28010 ft | 514 kts | 98° |
| 2026-04-24 00:52 | 32.92107 | -112.28437 | 27354 ft | 505 kts | 98° |
| 2026-04-24 00:52 | 32.91721 | -112.24349 | 26705 ft | 500 kts | 98° |
| 2026-04-24 00:53 | 32.91342 | -112.20258 | 26052 ft | 496 kts | 97° |
| 2026-04-24 00:53 | 32.90970 | -112.16201 | 25409 ft | 491 kts | 97° |
| 2026-04-24 00:53 | 32.90596 | -112.12174 | 24776 ft | 486 kts | 97° |
| 2026-04-24 00:53 | 32.90222 | -112.08201 | 24143 ft | 481 kts | 97° |
| 2026-04-24 00:54 | 32.89851 | -112.04267 | 23519 ft | 476 kts | 97° |
| 2026-04-24 00:54 | 32.89486 | -112.00370 | 22846 ft | 470 kts | 97° |
| 2026-04-24 00:54 | 32.89109 | -111.96523 | 22235 ft | 465 kts | 98° |
| 2026-04-24 00:54 | 32.88222 | -111.92862 | 21511 ft | 458 kts | 116° |
| 2026-04-24 00:55 | 32.86532 | -111.89707 | 20850 ft | 445 kts | 134° |
| 2026-04-24 00:55 | 32.84275 | -111.87282 | 20241 ft | 432 kts | 148° |
| 2026-04-24 00:55 | 32.81814 | -111.85232 | 19717 ft | 429 kts | 150° |
| 2026-04-24 00:55 | 32.79394 | -111.83261 | 19239 ft | 426 kts | 150° |
| 2026-04-24 00:56 | 32.76969 | -111.81262 | 18741 ft | 423 kts | 149° |
| 2026-04-24 00:56 | 32.74566 | -111.79257 | 18246 ft | 420 kts | 149° |
| 2026-04-24 00:56 | 32.72180 | -111.77279 | 17567 ft | 417 kts | 149° |
| 2026-04-24 00:56 | 32.69810 | -111.75330 | 16818 ft | 412 kts | 149° |
| 2026-04-24 00:57 | 32.67472 | -111.73404 | 16078 ft | 406 kts | 149° |
| 2026-04-24 00:57 | 32.65170 | -111.71501 | 15366 ft | 401 kts | 150° |
| 2026-04-24 00:57 | 32.60642 | -111.67771 | 13983 ft | 391 kts | 150° |
| 2026-04-24 00:58 | 32.58424 | -111.65945 | 13415 ft | 383 kts | 150° |
| 2026-04-24 00:58 | 32.56234 | -111.64138 | 12913 ft | 383 kts | 150° |
| 2026-04-24 00:58 | 32.54281 | -111.61953 | 12353 ft | 388 kts | 131° |
| 2026-04-24 00:58 | 32.52683 | -111.59383 | 11903 ft | 387 kts | 129° |
| 2026-04-24 00:59 | 32.51094 | -111.56835 | 11394 ft | 378 kts | 130° |
| 2026-04-24 00:59 | 32.49531 | -111.54458 | 10964 ft | 353 kts | 135° |
| 2026-04-24 00:59 | 32.47792 | -111.52593 | 10952 ft | 335 kts | 143° |
| 2026-04-24 00:59 | 32.45986 | -111.50792 | 10958 ft | 339 kts | 143° |
| 2026-04-24 01:00 | 32.44209 | -111.48986 | 10969 ft | 343 kts | 143° |
| 2026-04-24 01:00 | 32.42356 | -111.47082 | 10541 ft | 351 kts | 142° |
| 2026-04-24 01:00 | 32.40559 | -111.45232 | 10050 ft | 333 kts | 142° |
| 2026-04-24 01:00 | 32.38837 | -111.43479 | 9525 ft | 320 kts | 143° |
| 2026-04-24 01:01 | 32.37173 | -111.41793 | 8976 ft | 309 kts | 142° |
| 2026-04-24 01:01 | 32.35564 | -111.40158 | 8431 ft | 302 kts | 142° |
| 2026-04-24 01:01 | 32.33987 | -111.38551 | 7928 ft | 295 kts | 142° |
| 2026-04-24 01:01 | 32.32473 | -111.37009 | 7934 ft | 285 kts | 142° |
| 2026-04-24 01:02 | 32.30945 | -111.35461 | 7945 ft | 290 kts | 142° |
| 2026-04-24 01:02 | 32.29403 | -111.33895 | 7958 ft | 294 kts | 142° |
| 2026-04-24 01:02 | 32.27858 | -111.32324 | 7952 ft | 297 kts | 142° |
| 2026-04-24 01:02 | 32.26276 | -111.30719 | 7654 ft | 302 kts | 142° |
| 2026-04-24 01:03 | 32.24690 | -111.29108 | 7272 ft | 297 kts | 142° |
| 2026-04-24 01:03 | 32.23146 | -111.27540 | 6964 ft | 289 kts | 142° |
| 2026-04-24 01:03 | 32.21638 | -111.26011 | 6967 ft | 285 kts | 142° |
| 2026-04-24 01:03 | 32.20125 | -111.24482 | 6974 ft | 288 kts | 142° |
| 2026-04-24 01:04 | 32.18588 | -111.22927 | 6975 ft | 291 kts | 142° |
| 2026-04-24 01:04 | 32.17053 | -111.21370 | 6982 ft | 291 kts | 142° |
| 2026-04-24 01:04 | 32.15522 | -111.19820 | 6984 ft | 289 kts | 142° |
| 2026-04-24 01:04 | 32.13986 | -111.18269 | 6985 ft | 292 kts | 142° |
| 2026-04-24 01:05 | 32.12440 | -111.16706 | 6975 ft | 293 kts | 142° |
| 2026-04-24 01:05 | 32.10916 | -111.15163 | 6975 ft | 292 kts | 142° |
| 2026-04-24 01:05 | 32.09381 | -111.13613 | 6979 ft | 291 kts | 142° |
| 2026-04-24 01:05 | 32.07843 | -111.12062 | 6978 ft | 292 kts | 142° |
| 2026-04-24 01:06 | 32.06299 | -111.10504 | 6978 ft | 293 kts | 142° |
| 2026-04-24 01:06 | 32.04765 | -111.08955 | 6927 ft | 292 kts | 141° |
| 2026-04-24 01:06 | 32.03261 | -111.07435 | 6593 ft | 269 kts | 142° |
| 2026-04-24 01:06 | 32.01899 | -111.06057 | 6259 ft | 248 kts | 142° |
| 2026-04-24 01:07 | 32.00599 | -111.04752 | 5961 ft | 241 kts | 142° |
| 2026-04-24 01:07 | 31.99341 | -111.03535 | 5954 ft | 234 kts | 148° |
| 2026-04-24 01:07 | 31.97792 | -111.03117 | 5888 ft | 228 kts | 189° |
| 2026-04-24 01:07 | 31.96209 | -111.03105 | 5919 ft | 241 kts | 166° |
| 2026-04-24 01:08 | 31.94905 | -111.01888 | 5911 ft | 229 kts | 131° |
| 2026-04-24 01:08 | 31.94084 | -111.00343 | 6736 ft | 226 kts | 115° |
| 2026-04-24 01:08 | 31.93893 | -110.98439 | 6733 ft | 246 kts | 79° |
| 2026-04-24 01:08 | 31.94548 | -110.96600 | 6644 ft | 239 kts | 60° |
| 2026-04-24 01:09 | 31.95301 | -110.94986 | 6557 ft | 212 kts | 59° |
| 2026-04-24 01:09 | 31.95998 | -110.93496 | 6435 ft | 204 kts | 59° |
| 2026-04-24 01:09 | 31.96683 | -110.92033 | 6298 ft | 201 kts | 57° |
| 2026-04-24 01:09 | 31.97719 | -110.90997 | 6079 ft | 195 kts | 25° |
| 2026-04-24 01:10 | 31.98873 | -110.90169 | 5990 ft | 195 kts | 34° |
| 2026-04-24 01:10 | 31.99903 | -110.89112 | 6002 ft | 200 kts | 40° |
| 2026-04-24 01:10 | 32.00907 | -110.88009 | 5939 ft | 188 kts | 40° |
| 2026-04-24 01:10 | 32.01848 | -110.87005 | 5672 ft | 178 kts | 38° |
| 2026-04-24 01:11 | 32.02814 | -110.86188 | 5344 ft | 171 kts | 20° |
| 2026-04-24 01:11 | 32.03964 | -110.85976 | 4942 ft | 166 kts | 352° |
| 2026-04-24 01:11 | 32.05050 | -110.86364 | 4466 ft | 164 kts | 326° |
| 2026-04-24 01:11 | 32.05867 | -110.87193 | 3953 ft | 148 kts | 311° |
| 2026-04-24 01:12 | 32.06568 | -110.88028 | 3452 ft | 136 kts | 313° |
| 2026-04-24 01:12 | 32.07174 | -110.88731 | 3372 ft | 113 kts | 311° |
| 2026-04-24 01:12 | 32.07754 | -110.89416 | 3518 ft | 123 kts | 311° |
| 2026-04-24 01:12 | 32.08363 | -110.90129 | 3486 ft | 125 kts | 312° |
| 2026-04-24 01:13 | 32.08984 | -110.90885 | 3155 ft | 128 kts | 312° |
| 2026-04-24 01:13 | 32.09617 | -110.91614 | 2886 ft | 125 kts | 313° |
| 2026-04-24 01:13 | 32.10225 | -110.92316 | 2639 ft | 121 kts | 313° |
| 2026-04-24 01:13 | 32.10771 | -110.92957 | 2603 ft | 98 kts | 313° |
| 2026-04-24 01:14 | 32.11118 | -110.93360 | 2607 ft | 49 kts | 314° |
| 2026-04-24 01:14 | 32.11337 | -110.93621 | 2608 ft | 41 kts | 314° |
| 2026-04-24 01:14 | 32.11529 | -110.93840 | 2604 ft | 33 kts | 323° |
| 2026-04-24 01:14 | 32.11659 | -110.93881 | 2601 ft | 0 kts | 2° |
| 2026-04-24 01:16 | 32.11696 | -110.93865 | 2601 ft | 10 kts | 28° |
| 2026-04-24 01:16 | 32.11770 | -110.93888 | 2600 ft | 16 kts | 302° |
| 2026-04-24 01:16 | 32.11874 | -110.94005 | 2602 ft | 26 kts | 319° |
| 2026-04-24 01:17 | 32.12026 | -110.94180 | 2604 ft | 34 kts | 314° |
| 2026-04-24 01:17 | 32.12197 | -110.94382 | 2604 ft | 33 kts | 316° |
| 2026-04-24 01:17 | 32.12354 | -110.94567 | 2600 ft | 30 kts | 314° |
| 2026-04-24 01:17 | 32.12476 | -110.94706 | 2600 ft | 19 kts | 320° |
| 2026-04-24 01:18 | 32.12541 | -110.94691 | 2595 ft | 7 kts | 42° |
| 2026-04-24 01:18 | 32.12591 | -110.94632 | 2593 ft | 11 kts | 45° |
| 2026-04-24 01:18 | 32.12619 | -110.94599 | 2593 ft | 0 kts | 46° |
| 2026-04-24 01:18 | 32.12620 | -110.94597 | 2594 ft | 3 kts | 46° |
| 2026-04-24 01:19 | 32.12656 | -110.94554 | 2599 ft | 8 kts | 42° |
| 2026-04-24 01:19 | 32.12683 | -110.94498 | 2599 ft | 12 kts | 96° |
| 2026-04-24 01:19 | 32.12676 | -110.94471 | 2595 ft | 0 kts | 130° |
| 2026-04-24 01:19 | 32.12657 | -110.94480 | 2590 ft | 8 kts | 219° |
| 2026-04-24 01:20 | 32.12637 | -110.94504 | 2592 ft | 5 kts | 220° |
| 2026-04-24 01:20 | 32.12613 | -110.94500 | 2597 ft | 4 kts | 138° |
| 2026-04-24 01:20 | 32.12612 | -110.94485 | 2594 ft | 0 kts | 78° |
| 2026-04-24 01:20 | 32.12618 | -110.94470 | 2596 ft | 0 kts | 55° |